sensor_id;sensor_type;location;lat;lon;timestamp;temperature;humidity
79187;SHT31;68762;51.980;5.646;2024-02-28T00:00:22;6.4;68.5
79187;SHT31;68762;51.980;5.646;2024-02-28T00:02:51;6.4;69.1
79187;SHT31;68762;51.980;5.646;2024-02-28T00:05:19;6.4;68.9
79187;SHT31;68762;51.980;5.646;2024-02-28T00:07:48;6.3;69.1
79187;SHT31;68762;51.980;5.646;2024-02-28T00:10:21;6.3;69.2
79187;SHT31;68762;51.980;5.646;2024-02-28T00:12:49;6.3;69.3
79187;SHT31;68762;51.980;5.646;2024-02-28T00:15:18;6.3;69.4
79187;SHT31;68762;51.980;5.646;2024-02-28T00:17:47;6.3;69.3
79187;SHT31;68762;51.980;5.646;2024-02-28T00:20:15;6.3;69.4
79187;SHT31;68762;51.980;5.646;2024-02-28T00:22:44;6.3;69.5
79187;SHT31;68762;51.980;5.646;2024-02-28T00:25:13;6.3;69.4
79187;SHT31;68762;51.980;5.646;2024-02-28T00:27:42;6.3;69.6
79187;SHT31;68762;51.980;5.646;2024-02-28T00:30:11;6.3;69.9
79187;SHT31;68762;51.980;5.646;2024-02-28T00:32:40;6.2;69.7
79187;SHT31;68762;51.980;5.646;2024-02-28T00:35:09;6.2;69.7
79187;SHT31;68762;51.980;5.646;2024-02-28T00:37:37;6.2;69.9
79187;SHT31;68762;51.980;5.646;2024-02-28T00:40:08;6.2;69.8
79187;SHT31;68762;51.980;5.646;2024-02-28T00:42:37;6.2;69.7
79187;SHT31;68762;51.980;5.646;2024-02-28T00:45:08;6.2;69.4
79187;SHT31;68762;51.980;5.646;2024-02-28T00:47:37;6.2;69.4
79187;SHT31;68762;51.980;5.646;2024-02-28T00:50:07;6.2;69.9
79187;SHT31;68762;51.980;5.646;2024-02-28T00:52:36;6.2;69.7
79187;SHT31;68762;51.980;5.646;2024-02-28T00:55:05;6.2;70.2
79187;SHT31;68762;51.980;5.646;2024-02-28T00:57:36;6.2;70.1
79187;SHT31;68762;51.980;5.646;2024-02-28T01:00:05;6.2;70.2
79187;SHT31;68762;51.980;5.646;2024-02-28T01:02:36;6.2;70.0
79187;SHT31;68762;51.980;5.646;2024-02-28T01:05:05;6.2;69.9
79187;SHT31;68762;51.980;5.646;2024-02-28T01:07:34;6.2;70.1
79187;SHT31;68762;51.980;5.646;2024-02-28T01:10:02;6.2;70.2
79187;SHT31;68762;51.980;5.646;2024-02-28T01:12:31;6.2;70.4
79187;SHT31;68762;51.980;5.646;2024-02-28T01:15:01;6.2;70.7
79187;SHT31;68762;51.980;5.646;2024-02-28T01:17:30;6.2;70.4
79187;SHT31;68762;51.980;5.646;2024-02-28T01:19:58;6.2;70.3
79187;SHT31;68762;51.980;5.646;2024-02-28T01:22:27;6.2;69.8
79187;SHT31;68762;51.980;5.646;2024-02-28T01:24:56;6.2;69.8
79187;SHT31;68762;51.980;5.646;2024-02-28T01:27:24;6.2;69.6
79187;SHT31;68762;51.980;5.646;2024-02-28T01:29:53;6.1;69.8
79187;SHT31;68762;51.980;5.646;2024-02-28T01:32:22;6.1;69.7
79187;SHT31;68762;51.980;5.646;2024-02-28T01:34:50;6.1;69.8
79187;SHT31;68762;51.980;5.646;2024-02-28T01:37:19;6.1;70.0
79187;SHT31;68762;51.980;5.646;2024-02-28T01:39:47;6.0;70.3
79187;SHT31;68762;51.980;5.646;2024-02-28T01:42:18;6.0;70.8
79187;SHT31;68762;51.980;5.646;2024-02-28T01:44:48;6.0;71.1
79187;SHT31;68762;51.980;5.646;2024-02-28T01:47:17;6.0;70.7
79187;SHT31;68762;51.980;5.646;2024-02-28T01:49:47;6.0;70.4
79187;SHT31;68762;51.980;5.646;2024-02-28T01:52:17;6.0;70.4
79187;SHT31;68762;51.980;5.646;2024-02-28T01:54:46;6.0;70.7
79187;SHT31;68762;51.980;5.646;2024-02-28T01:57:15;6.0;70.8
79187;SHT31;68762;51.980;5.646;2024-02-28T01:59:44;6.0;70.8
79187;SHT31;68762;51.980;5.646;2024-02-28T02:02:13;6.0;70.5
79187;SHT31;68762;51.980;5.646;2024-02-28T02:04:42;6.0;70.5
79187;SHT31;68762;51.980;5.646;2024-02-28T02:07:11;6.0;70.8
79187;SHT31;68762;51.980;5.646;2024-02-28T02:09:41;6.0;71.2
79187;SHT31;68762;51.980;5.646;2024-02-28T02:12:10;6.0;71.3
79187;SHT31;68762;51.980;5.646;2024-02-28T02:14:39;6.0;71.1
79187;SHT31;68762;51.980;5.646;2024-02-28T02:17:08;6.0;70.7
79187;SHT31;68762;51.980;5.646;2024-02-28T02:19:36;6.0;70.5
79187;SHT31;68762;51.980;5.646;2024-02-28T02:22:08;6.0;70.8
79187;SHT31;68762;51.980;5.646;2024-02-28T02:24:38;6.0;70.9
79187;SHT31;68762;51.980;5.646;2024-02-28T02:27:07;6.0;70.6
79187;SHT31;68762;51.980;5.646;2024-02-28T02:29:36;6.0;70.1
79187;SHT31;68762;51.980;5.646;2024-02-28T02:32:04;6.0;70.5
79187;SHT31;68762;51.980;5.646;2024-02-28T02:34:35;6.0;70.9
79187;SHT31;68762;51.980;5.646;2024-02-28T02:37:04;6.0;71.1
79187;SHT31;68762;51.980;5.646;2024-02-28T02:39:35;6.0;71.2
79187;SHT31;68762;51.980;5.646;2024-02-28T02:42:03;5.9;71.6
79187;SHT31;68762;51.980;5.646;2024-02-28T02:44:33;6.0;71.7
79187;SHT31;68762;51.980;5.646;2024-02-28T02:47:02;6.0;71.4
79187;SHT31;68762;51.980;5.646;2024-02-28T02:49:31;6.0;70.9
79187;SHT31;68762;51.980;5.646;2024-02-28T02:52:01;6.0;70.9
79187;SHT31;68762;51.980;5.646;2024-02-28T02:54:31;6.0;70.6
79187;SHT31;68762;51.980;5.646;2024-02-28T02:57:00;6.0;70.6
79187;SHT31;68762;51.980;5.646;2024-02-28T02:59:29;6.0;70.4
79187;SHT31;68762;51.980;5.646;2024-02-28T03:01:58;6.0;70.6
79187;SHT31;68762;51.980;5.646;2024-02-28T03:04:26;6.0;70.6
79187;SHT31;68762;51.980;5.646;2024-02-28T03:06:55;6.0;70.7
79187;SHT31;68762;51.980;5.646;2024-02-28T03:09:24;6.0;70.8
79187;SHT31;68762;51.980;5.646;2024-02-28T03:11:53;6.0;70.9
79187;SHT31;68762;51.980;5.646;2024-02-28T03:14:21;6.0;70.8
79187;SHT31;68762;51.980;5.646;2024-02-28T03:16:51;6.0;70.3
79187;SHT31;68762;51.980;5.646;2024-02-28T03:19:20;6.0;70.2
79187;SHT31;68762;51.980;5.646;2024-02-28T03:21:49;6.0;70.0
79187;SHT31;68762;51.980;5.646;2024-02-28T03:24:17;6.0;69.8
79187;SHT31;68762;51.980;5.646;2024-02-28T03:26:46;6.0;69.6
79187;SHT31;68762;51.980;5.646;2024-02-28T03:29:15;6.0;69.5
79187;SHT31;68762;51.980;5.646;2024-02-28T03:31:43;5.9;69.9
79187;SHT31;68762;51.980;5.646;2024-02-28T03:34:12;5.9;69.8
79187;SHT31;68762;51.980;5.646;2024-02-28T03:36:40;5.9;69.8
79187;SHT31;68762;51.980;5.646;2024-02-28T03:39:09;5.9;69.8
79187;SHT31;68762;51.980;5.646;2024-02-28T03:41:37;5.9;70.0
79187;SHT31;68762;51.980;5.646;2024-02-28T03:44:06;5.9;69.9
79187;SHT31;68762;51.980;5.646;2024-02-28T03:46:35;5.9;69.7
79187;SHT31;68762;51.980;5.646;2024-02-28T03:49:03;5.9;69.8
79187;SHT31;68762;51.980;5.646;2024-02-28T03:51:32;5.8;69.8
79187;SHT31;68762;51.980;5.646;2024-02-28T03:54:05;5.8;69.8
79187;SHT31;68762;51.980;5.646;2024-02-28T03:56:33;5.8;69.8
79187;SHT31;68762;51.980;5.646;2024-02-28T03:59:05;5.8;69.7
79187;SHT31;68762;51.980;5.646;2024-02-28T04:01:33;5.8;69.7
79187;SHT31;68762;51.980;5.646;2024-02-28T04:04:02;5.8;69.4
79187;SHT31;68762;51.980;5.646;2024-02-28T04:06:31;5.7;69.1
79187;SHT31;68762;51.980;5.646;2024-02-28T04:09:02;5.7;69.1
79187;SHT31;68762;51.980;5.646;2024-02-28T04:11:31;5.7;69.2
79187;SHT31;68762;51.980;5.646;2024-02-28T04:14:00;5.7;69.4
79187;SHT31;68762;51.980;5.646;2024-02-28T04:16:29;5.6;69.6
79187;SHT31;68762;51.980;5.646;2024-02-28T04:18:58;5.6;69.7
79187;SHT31;68762;51.980;5.646;2024-02-28T04:21:26;5.6;69.9
79187;SHT31;68762;51.980;5.646;2024-02-28T04:23:55;5.6;70.0
79187;SHT31;68762;51.980;5.646;2024-02-28T04:26:23;5.6;70.1
79187;SHT31;68762;51.980;5.646;2024-02-28T04:28:52;5.6;70.3
79187;SHT31;68762;51.980;5.646;2024-02-28T04:31:20;5.6;70.2
79187;SHT31;68762;51.980;5.646;2024-02-28T04:33:49;5.6;70.4
79187;SHT31;68762;51.980;5.646;2024-02-28T04:36:18;5.6;70.4
79187;SHT31;68762;51.980;5.646;2024-02-28T04:38:46;5.6;70.4
79187;SHT31;68762;51.980;5.646;2024-02-28T04:41:15;5.6;70.5
79187;SHT31;68762;51.980;5.646;2024-02-28T04:43:45;5.6;70.6
79187;SHT31;68762;51.980;5.646;2024-02-28T04:46:14;5.6;70.7
79187;SHT31;68762;51.980;5.646;2024-02-28T04:48:43;5.6;70.9
79187;SHT31;68762;51.980;5.646;2024-02-28T04:51:15;5.6;71.1
79187;SHT31;68762;51.980;5.646;2024-02-28T04:53:44;5.6;71.2
79187;SHT31;68762;51.980;5.646;2024-02-28T04:56:12;5.6;71.3
79187;SHT31;68762;51.980;5.646;2024-02-28T04:58:41;5.6;71.4
79187;SHT31;68762;51.980;5.646;2024-02-28T05:01:10;5.6;71.6
79187;SHT31;68762;51.980;5.646;2024-02-28T05:03:39;5.7;71.3
79187;SHT31;68762;51.980;5.646;2024-02-28T05:06:08;5.7;71.1
79187;SHT31;68762;51.980;5.646;2024-02-28T05:08:38;5.7;71.0
79187;SHT31;68762;51.980;5.646;2024-02-28T05:11:07;5.7;71.0
79187;SHT31;68762;51.980;5.646;2024-02-28T05:13:36;5.7;70.8
79187;SHT31;68762;51.980;5.646;2024-02-28T05:16:15;5.8;71.0
79187;SHT31;68762;51.980;5.646;2024-02-28T05:18:44;5.8;70.9
79187;SHT31;68762;51.980;5.646;2024-02-28T05:21:13;5.8;70.8
79187;SHT31;68762;51.980;5.646;2024-02-28T05:23:45;5.8;70.7
79187;SHT31;68762;51.980;5.646;2024-02-28T05:26:15;5.8;70.4
79187;SHT31;68762;51.980;5.646;2024-02-28T05:28:44;5.8;70.1
79187;SHT31;68762;51.980;5.646;2024-02-28T05:31:22;5.8;70.2
79187;SHT31;68762;51.980;5.646;2024-02-28T05:33:52;5.8;70.2
79187;SHT31;68762;51.980;5.646;2024-02-28T05:36:24;5.8;70.2
79187;SHT31;68762;51.980;5.646;2024-02-28T05:38:54;5.8;70.2
79187;SHT31;68762;51.980;5.646;2024-02-28T05:41:23;5.8;70.2
79187;SHT31;68762;51.980;5.646;2024-02-28T05:43:52;5.8;70.2
79187;SHT31;68762;51.980;5.646;2024-02-28T05:46:21;5.8;70.5
79187;SHT31;68762;51.980;5.646;2024-02-28T05:48:50;5.8;70.6
79187;SHT31;68762;51.980;5.646;2024-02-28T05:51:21;5.8;70.7
79187;SHT31;68762;51.980;5.646;2024-02-28T05:53:50;5.8;70.8
79187;SHT31;68762;51.980;5.646;2024-02-28T05:56:18;5.8;70.7
79187;SHT31;68762;51.980;5.646;2024-02-28T05:58:48;5.8;70.6
79187;SHT31;68762;51.980;5.646;2024-02-28T06:01:17;5.8;70.8
79187;SHT31;68762;51.980;5.646;2024-02-28T06:03:47;5.8;70.8
79187;SHT31;68762;51.980;5.646;2024-02-28T06:06:17;5.8;70.8
79187;SHT31;68762;51.980;5.646;2024-02-28T06:08:46;5.8;70.9
79187;SHT31;68762;51.980;5.646;2024-02-28T06:11:15;5.8;70.9
79187;SHT31;68762;51.980;5.646;2024-02-28T06:13:45;5.8;70.8
79187;SHT31;68762;51.980;5.646;2024-02-28T06:16:16;5.8;71.2
79187;SHT31;68762;51.980;5.646;2024-02-28T06:18:45;5.8;71.2
79187;SHT31;68762;51.980;5.646;2024-02-28T06:21:14;5.8;71.3
79187;SHT31;68762;51.980;5.646;2024-02-28T06:23:45;5.8;71.3
79187;SHT31;68762;51.980;5.646;2024-02-28T06:26:15;5.8;71.4
79187;SHT31;68762;51.980;5.646;2024-02-28T06:28:45;5.8;71.3
79187;SHT31;68762;51.980;5.646;2024-02-28T06:31:15;5.8;71.3
79187;SHT31;68762;51.980;5.646;2024-02-28T06:33:44;5.8;71.4
79187;SHT31;68762;51.980;5.646;2024-02-28T06:36:13;5.9;71.3
79187;SHT31;68762;51.980;5.646;2024-02-28T06:38:41;5.9;71.1
79187;SHT31;68762;51.980;5.646;2024-02-28T06:41:12;5.9;70.9
79187;SHT31;68762;51.980;5.646;2024-02-28T06:43:40;5.9;71.0
79187;SHT31;68762;51.980;5.646;2024-02-28T06:46:09;5.9;70.8
79187;SHT31;68762;51.980;5.646;2024-02-28T06:48:38;5.9;70.6
79187;SHT31;68762;51.980;5.646;2024-02-28T06:51:06;5.9;70.6
79187;SHT31;68762;51.980;5.646;2024-02-28T06:53:35;5.9;70.7
79187;SHT31;68762;51.980;5.646;2024-02-28T06:56:04;5.9;70.8
79187;SHT31;68762;51.980;5.646;2024-02-28T06:58:32;6.0;70.9
79187;SHT31;68762;51.980;5.646;2024-02-28T07:01:01;6.0;71.1
79187;SHT31;68762;51.980;5.646;2024-02-28T07:03:30;6.0;71.2
79187;SHT31;68762;51.980;5.646;2024-02-28T07:05:59;6.0;71.1
79187;SHT31;68762;51.980;5.646;2024-02-28T07:08:27;6.0;71.0
79187;SHT31;68762;51.980;5.646;2024-02-28T07:10:56;6.0;70.7
79187;SHT31;68762;51.980;5.646;2024-02-28T07:13:24;6.0;70.8
79187;SHT31;68762;51.980;5.646;2024-02-28T07:15:55;6.0;70.4
79187;SHT31;68762;51.980;5.646;2024-02-28T07:18:24;6.1;70.5
79187;SHT31;68762;51.980;5.646;2024-02-28T07:20:55;6.1;70.5
79187;SHT31;68762;51.980;5.646;2024-02-28T07:23:24;6.1;70.5
79187;SHT31;68762;51.980;5.646;2024-02-28T07:25:52;6.1;70.6
79187;SHT31;68762;51.980;5.646;2024-02-28T07:28:21;6.1;70.6
79187;SHT31;68762;51.980;5.646;2024-02-28T07:30:49;6.1;70.4
79187;SHT31;68762;51.980;5.646;2024-02-28T07:33:18;6.2;70.5
79187;SHT31;68762;51.980;5.646;2024-02-28T07:35:48;6.2;70.1
79187;SHT31;68762;51.980;5.646;2024-02-28T07:38:17;6.2;70.3
79187;SHT31;68762;51.980;5.646;2024-02-28T07:40:48;6.2;70.1
79187;SHT31;68762;51.980;5.646;2024-02-28T07:43:17;6.3;70.2
79187;SHT31;68762;51.980;5.646;2024-02-28T07:45:45;6.3;70.1
79187;SHT31;68762;51.980;5.646;2024-02-28T07:48:14;6.3;69.9
79187;SHT31;68762;51.980;5.646;2024-02-28T07:50:44;6.3;69.7
79187;SHT31;68762;51.980;5.646;2024-02-28T07:53:12;6.3;69.6
79187;SHT31;68762;51.980;5.646;2024-02-28T07:55:41;6.3;69.7
79187;SHT31;68762;51.980;5.646;2024-02-28T07:58:10;6.4;69.4
79187;SHT31;68762;51.980;5.646;2024-02-28T08:00:39;6.4;69.5
79187;SHT31;68762;51.980;5.646;2024-02-28T08:03:08;6.4;69.4
79187;SHT31;68762;51.980;5.646;2024-02-28T08:05:38;6.4;69.8
79187;SHT31;68762;51.980;5.646;2024-02-28T08:08:07;6.4;70.0
79187;SHT31;68762;51.980;5.646;2024-02-28T08:10:37;6.4;69.6
79187;SHT31;68762;51.980;5.646;2024-02-28T08:13:06;6.4;69.6
79187;SHT31;68762;51.980;5.646;2024-02-28T08:15:35;6.3;69.8
79187;SHT31;68762;51.980;5.646;2024-02-28T08:18:03;6.3;69.8
79187;SHT31;68762;51.980;5.646;2024-02-28T08:20:32;6.3;70.0
79187;SHT31;68762;51.980;5.646;2024-02-28T08:23:02;6.3;70.4
79187;SHT31;68762;51.980;5.646;2024-02-28T08:25:31;6.3;70.4
79187;SHT31;68762;51.980;5.646;2024-02-28T08:27:59;6.3;70.8
79187;SHT31;68762;51.980;5.646;2024-02-28T08:30:30;6.3;70.6
79187;SHT31;68762;51.980;5.646;2024-02-28T08:33:00;6.3;70.5
79187;SHT31;68762;51.980;5.646;2024-02-28T08:35:29;6.3;70.6
79187;SHT31;68762;51.980;5.646;2024-02-28T08:37:57;6.3;70.9
79187;SHT31;68762;51.980;5.646;2024-02-28T08:40:26;6.4;70.9
79187;SHT31;68762;51.980;5.646;2024-02-28T08:42:54;6.4;70.8
79187;SHT31;68762;51.980;5.646;2024-02-28T08:45:24;6.4;70.6
79187;SHT31;68762;51.980;5.646;2024-02-28T08:47:52;6.4;70.7
79187;SHT31;68762;51.980;5.646;2024-02-28T08:50:21;6.4;70.8
79187;SHT31;68762;51.980;5.646;2024-02-28T08:52:50;6.5;70.7
79187;SHT31;68762;51.980;5.646;2024-02-28T08:55:18;6.5;70.9
79187;SHT31;68762;51.980;5.646;2024-02-28T08:57:48;6.5;71.0
79187;SHT31;68762;51.980;5.646;2024-02-28T09:00:17;6.6;70.7
79187;SHT31;68762;51.980;5.646;2024-02-28T09:02:47;6.6;70.7
79187;SHT31;68762;51.980;5.646;2024-02-28T09:05:17;6.6;70.3
79187;SHT31;68762;51.980;5.646;2024-02-28T09:07:46;6.6;70.7
79187;SHT31;68762;51.980;5.646;2024-02-28T09:10:20;6.7;70.8
79187;SHT31;68762;51.980;5.646;2024-02-28T09:12:50;6.7;70.6
79187;SHT31;68762;51.980;5.646;2024-02-28T09:15:19;6.7;70.8
79187;SHT31;68762;51.980;5.646;2024-02-28T09:17:48;6.7;70.9
79187;SHT31;68762;51.980;5.646;2024-02-28T09:20:17;6.8;71.0
79187;SHT31;68762;51.980;5.646;2024-02-28T09:22:46;6.8;71.1
79187;SHT31;68762;51.980;5.646;2024-02-28T09:25:14;6.8;71.1
79187;SHT31;68762;51.980;5.646;2024-02-28T09:27:44;6.8;71.2
79187;SHT31;68762;51.980;5.646;2024-02-28T09:30:13;6.9;71.8
79187;SHT31;68762;51.980;5.646;2024-02-28T09:32:43;6.9;72.0
79187;SHT31;68762;51.980;5.646;2024-02-28T09:35:11;6.9;72.4
79187;SHT31;68762;51.980;5.646;2024-02-28T09:37:40;6.9;72.5
79187;SHT31;68762;51.980;5.646;2024-02-28T09:40:11;7.0;72.5
79187;SHT31;68762;51.980;5.646;2024-02-28T09:42:42;7.0;72.0
79187;SHT31;68762;51.980;5.646;2024-02-28T09:45:12;7.1;72.1
79187;SHT31;68762;51.980;5.646;2024-02-28T09:47:42;7.1;71.8
79187;SHT31;68762;51.980;5.646;2024-02-28T09:50:14;7.2;72.1
79187;SHT31;68762;51.980;5.646;2024-02-28T09:52:43;7.2;72.1
79187;SHT31;68762;51.980;5.646;2024-02-28T09:55:13;7.2;72.4
79187;SHT31;68762;51.980;5.646;2024-02-28T09:57:43;7.3;72.4
79187;SHT31;68762;51.980;5.646;2024-02-28T10:00:17;7.3;71.9
79187;SHT31;68762;51.980;5.646;2024-02-28T10:02:47;7.4;71.8
79187;SHT31;68762;51.980;5.646;2024-02-28T10:05:18;7.4;71.8
79187;SHT31;68762;51.980;5.646;2024-02-28T10:07:51;7.5;71.8
79187;SHT31;68762;51.980;5.646;2024-02-28T10:10:22;7.5;71.9
79187;SHT31;68762;51.980;5.646;2024-02-28T10:12:51;7.6;71.6
79187;SHT31;68762;51.980;5.646;2024-02-28T10:15:22;7.6;71.8
79187;SHT31;68762;51.980;5.646;2024-02-28T10:17:50;7.7;71.4
79187;SHT31;68762;51.980;5.646;2024-02-28T10:20:19;7.8;71.7
79187;SHT31;68762;51.980;5.646;2024-02-28T10:22:48;7.8;71.3
79187;SHT31;68762;51.980;5.646;2024-02-28T10:25:19;7.9;70.8
79187;SHT31;68762;51.980;5.646;2024-02-28T10:27:51;7.9;70.8
79187;SHT31;68762;51.980;5.646;2024-02-28T10:30:20;8.0;71.0
79187;SHT31;68762;51.980;5.646;2024-02-28T10:32:52;8.0;70.5
79187;SHT31;68762;51.980;5.646;2024-02-28T10:35:20;8.0;70.6
79187;SHT31;68762;51.980;5.646;2024-02-28T10:37:52;8.1;70.7
79187;SHT31;68762;51.980;5.646;2024-02-28T10:40:24;8.1;71.1
79187;SHT31;68762;51.980;5.646;2024-02-28T10:42:53;8.1;71.4
79187;SHT31;68762;51.980;5.646;2024-02-28T10:45:24;8.2;71.4
79187;SHT31;68762;51.980;5.646;2024-02-28T10:47:58;8.3;71.0
79187;SHT31;68762;51.980;5.646;2024-02-28T10:50:27;8.4;70.5
79187;SHT31;68762;51.980;5.646;2024-02-28T10:53:00;8.5;71.0
79187;SHT31;68762;51.980;5.646;2024-02-28T10:55:33;8.5;70.2
79187;SHT31;68762;51.980;5.646;2024-02-28T10:58:07;8.6;70.6
79187;SHT31;68762;51.980;5.646;2024-02-28T11:00:38;8.7;69.9
79187;SHT31;68762;51.980;5.646;2024-02-28T11:03:08;8.7;70.0
79187;SHT31;68762;51.980;5.646;2024-02-28T11:05:40;8.8;70.3
79187;SHT31;68762;51.980;5.646;2024-02-28T11:08:10;8.9;70.4
79187;SHT31;68762;51.980;5.646;2024-02-28T11:10:42;9.0;69.9
79187;SHT31;68762;51.980;5.646;2024-02-28T11:13:23;9.1;70.0
79187;SHT31;68762;51.980;5.646;2024-02-28T11:15:53;9.2;69.7
79187;SHT31;68762;51.980;5.646;2024-02-28T11:18:21;9.3;69.9
79187;SHT31;68762;51.980;5.646;2024-02-28T11:20:50;9.4;68.8
79187;SHT31;68762;51.980;5.646;2024-02-28T11:23:19;9.5;68.8
79187;SHT31;68762;51.980;5.646;2024-02-28T11:25:48;9.6;68.5
79187;SHT31;68762;51.980;5.646;2024-02-28T11:28:17;9.6;67.9
79187;SHT31;68762;51.980;5.646;2024-02-28T11:30:49;9.7;68.2
79187;SHT31;68762;51.980;5.646;2024-02-28T11:33:18;9.7;68.7
79187;SHT31;68762;51.980;5.646;2024-02-28T11:35:55;9.8;67.7
79187;SHT31;68762;51.980;5.646;2024-02-28T11:38:26;9.9;67.8
79187;SHT31;68762;51.980;5.646;2024-02-28T11:40:55;9.9;67.9
79187;SHT31;68762;51.980;5.646;2024-02-28T11:43:24;10.0;68.0
79187;SHT31;68762;51.980;5.646;2024-02-28T11:45:53;10.0;68.1
79187;SHT31;68762;51.980;5.646;2024-02-28T11:48:23;10.1;67.6
79187;SHT31;68762;51.980;5.646;2024-02-28T11:50:53;10.2;67.9
79187;SHT31;68762;51.980;5.646;2024-02-28T11:53:21;10.3;67.6
79187;SHT31;68762;51.980;5.646;2024-02-28T11:55:50;10.3;67.0
79187;SHT31;68762;51.980;5.646;2024-02-28T11:58:19;10.4;67.1
79187;SHT31;68762;51.980;5.646;2024-02-28T12:00:50;10.4;67.1
79187;SHT31;68762;51.980;5.646;2024-02-28T12:03:23;10.5;67.0
79187;SHT31;68762;51.980;5.646;2024-02-28T12:05:54;10.5;66.9
79187;SHT31;68762;51.980;5.646;2024-02-28T12:08:23;10.6;66.8
79187;SHT31;68762;51.980;5.646;2024-02-28T12:10:54;10.6;66.7
79187;SHT31;68762;51.980;5.646;2024-02-28T12:13:23;10.6;66.6
79187;SHT31;68762;51.980;5.646;2024-02-28T12:15:51;10.7;66.7
79187;SHT31;68762;51.980;5.646;2024-02-28T12:18:22;10.7;66.1
79187;SHT31;68762;51.980;5.646;2024-02-28T12:20:50;10.7;66.5
79187;SHT31;68762;51.980;5.646;2024-02-28T12:23:19;10.8;66.6
79187;SHT31;68762;51.980;5.646;2024-02-28T12:25:50;10.8;66.6
79187;SHT31;68762;51.980;5.646;2024-02-28T12:28:21;10.8;66.1
79187;SHT31;68762;51.980;5.646;2024-02-28T12:30:50;10.8;66.3
79187;SHT31;68762;51.980;5.646;2024-02-28T12:33:20;10.9;66.5
79187;SHT31;68762;51.980;5.646;2024-02-28T12:35:49;10.9;66.2
79187;SHT31;68762;51.980;5.646;2024-02-28T12:38:18;10.9;66.4
79187;SHT31;68762;51.980;5.646;2024-02-28T12:40:49;10.9;66.3
79187;SHT31;68762;51.980;5.646;2024-02-28T12:43:17;10.9;66.4
79187;SHT31;68762;51.980;5.646;2024-02-28T12:45:46;11.0;66.4
79187;SHT31;68762;51.980;5.646;2024-02-28T12:48:15;11.0;67.2
79187;SHT31;68762;51.980;5.646;2024-02-28T12:50:45;11.0;66.7
79187;SHT31;68762;51.980;5.646;2024-02-28T12:53:14;11.1;66.1
79187;SHT31;68762;51.980;5.646;2024-02-28T12:55:45;11.1;66.5
79187;SHT31;68762;51.980;5.646;2024-02-28T12:58:13;11.1;66.0
79187;SHT31;68762;51.980;5.646;2024-02-28T13:00:42;11.2;65.9
79187;SHT31;68762;51.980;5.646;2024-02-28T13:03:11;11.2;65.6
79187;SHT31;68762;51.980;5.646;2024-02-28T13:05:40;11.2;65.4
79187;SHT31;68762;51.980;5.646;2024-02-28T13:08:09;11.2;65.8
79187;SHT31;68762;51.980;5.646;2024-02-28T13:10:38;11.2;65.8
79187;SHT31;68762;51.980;5.646;2024-02-28T13:13:07;11.3;65.9
79187;SHT31;68762;51.980;5.646;2024-02-28T13:15:36;11.3;65.6
79187;SHT31;68762;51.980;5.646;2024-02-28T13:18:05;11.4;65.7
79187;SHT31;68762;51.980;5.646;2024-02-28T13:20:37;11.4;65.6
79187;SHT31;68762;51.980;5.646;2024-02-28T13:23:07;11.4;65.8
79187;SHT31;68762;51.980;5.646;2024-02-28T13:25:36;11.5;65.1
79187;SHT31;68762;51.980;5.646;2024-02-28T13:28:05;11.6;65.2
79187;SHT31;68762;51.980;5.646;2024-02-28T13:30:34;11.6;64.8
79187;SHT31;68762;51.980;5.646;2024-02-28T13:33:03;11.7;64.5
79187;SHT31;68762;51.980;5.646;2024-02-28T13:35:34;11.7;64.5
79187;SHT31;68762;51.980;5.646;2024-02-28T13:38:05;11.8;64.6
79187;SHT31;68762;51.980;5.646;2024-02-28T13:40:33;11.8;64.3
79187;SHT31;68762;51.980;5.646;2024-02-28T13:43:03;11.8;64.3
79187;SHT31;68762;51.980;5.646;2024-02-28T13:45:32;11.8;64.4
79187;SHT31;68762;51.980;5.646;2024-02-28T13:48:01;11.9;64.0
79187;SHT31;68762;51.980;5.646;2024-02-28T13:50:30;11.9;63.8
79187;SHT31;68762;51.980;5.646;2024-02-28T13:52:59;11.9;64.0
79187;SHT31;68762;51.980;5.646;2024-02-28T13:55:28;11.9;63.9
79187;SHT31;68762;51.980;5.646;2024-02-28T13:57:58;11.9;64.0
79187;SHT31;68762;51.980;5.646;2024-02-28T14:00:27;11.9;64.8
79187;SHT31;68762;51.980;5.646;2024-02-28T14:02:56;12.0;63.8
79187;SHT31;68762;51.980;5.646;2024-02-28T14:05:24;12.0;63.9
79187;SHT31;68762;51.980;5.646;2024-02-28T14:07:53;12.1;63.5
79187;SHT31;68762;51.980;5.646;2024-02-28T14:10:22;12.1;63.7
79187;SHT31;68762;51.980;5.646;2024-02-28T14:12:51;12.2;63.5
79187;SHT31;68762;51.980;5.646;2024-02-28T14:15:20;12.2;62.8
79187;SHT31;68762;51.980;5.646;2024-02-28T14:17:49;12.3;62.6
79187;SHT31;68762;51.980;5.646;2024-02-28T14:20:18;12.3;62.7
79187;SHT31;68762;51.980;5.646;2024-02-28T14:22:47;12.3;62.3
79187;SHT31;68762;51.980;5.646;2024-02-28T14:25:17;12.4;62.6
79187;SHT31;68762;51.980;5.646;2024-02-28T14:27:47;12.4;62.3
79187;SHT31;68762;51.980;5.646;2024-02-28T14:30:16;12.4;61.8
79187;SHT31;68762;51.980;5.646;2024-02-28T14:32:45;12.4;61.5
79187;SHT31;68762;51.980;5.646;2024-02-28T14:35:17;12.4;61.6
79187;SHT31;68762;51.980;5.646;2024-02-28T14:37:45;12.4;61.8
79187;SHT31;68762;51.980;5.646;2024-02-28T14:40:14;12.3;62.0
79187;SHT31;68762;51.980;5.646;2024-02-28T14:42:43;12.3;62.1
79187;SHT31;68762;51.980;5.646;2024-02-28T14:45:14;12.3;62.1
79187;SHT31;68762;51.980;5.646;2024-02-28T14:47:43;12.3;62.2
79187;SHT31;68762;51.980;5.646;2024-02-28T14:50:12;12.2;62.3
79187;SHT31;68762;51.980;5.646;2024-02-28T14:52:41;12.2;62.7
79187;SHT31;68762;51.980;5.646;2024-02-28T14:55:10;12.2;62.9
79187;SHT31;68762;51.980;5.646;2024-02-28T14:57:40;12.2;63.2
79187;SHT31;68762;51.980;5.646;2024-02-28T15:00:11;12.2;63.1
79187;SHT31;68762;51.980;5.646;2024-02-28T15:02:42;12.2;63.7
79187;SHT31;68762;51.980;5.646;2024-02-28T15:05:12;12.2;63.5
79187;SHT31;68762;51.980;5.646;2024-02-28T15:07:41;12.2;63.3
79187;SHT31;68762;51.980;5.646;2024-02-28T15:10:10;12.1;63.3
79187;SHT31;68762;51.980;5.646;2024-02-28T15:12:40;12.1;63.5
79187;SHT31;68762;51.980;5.646;2024-02-28T15:15:13;12.1;63.0
79187;SHT31;68762;51.980;5.646;2024-02-28T15:17:42;12.1;63.2
79187;SHT31;68762;51.980;5.646;2024-02-28T15:20:11;12.1;63.4
79187;SHT31;68762;51.980;5.646;2024-02-28T15:22:40;12.0;63.3
79187;SHT31;68762;51.980;5.646;2024-02-28T15:25:18;12.0;63.2
79187;SHT31;68762;51.980;5.646;2024-02-28T15:27:46;12.0;63.4
79187;SHT31;68762;51.980;5.646;2024-02-28T15:30:15;11.9;63.7
79187;SHT31;68762;51.980;5.646;2024-02-28T15:32:44;11.9;63.7
79187;SHT31;68762;51.980;5.646;2024-02-28T15:35:13;11.9;63.5
79187;SHT31;68762;51.980;5.646;2024-02-28T15:37:43;11.9;63.7
79187;SHT31;68762;51.980;5.646;2024-02-28T15:40:12;11.9;63.9
79187;SHT31;68762;51.980;5.646;2024-02-28T15:42:42;11.9;63.6
79187;SHT31;68762;51.980;5.646;2024-02-28T15:45:11;11.9;63.7
79187;SHT31;68762;51.980;5.646;2024-02-28T15:47:41;11.9;63.7
79187;SHT31;68762;51.980;5.646;2024-02-28T15:50:11;11.9;64.0
79187;SHT31;68762;51.980;5.646;2024-02-28T15:52:39;11.9;63.9
79187;SHT31;68762;51.980;5.646;2024-02-28T15:55:10;11.9;63.8
79187;SHT31;68762;51.980;5.646;2024-02-28T15:57:39;11.9;63.7
79187;SHT31;68762;51.980;5.646;2024-02-28T16:00:11;11.9;63.6
79187;SHT31;68762;51.980;5.646;2024-02-28T16:02:39;11.9;64.0
79187;SHT31;68762;51.980;5.646;2024-02-28T16:05:10;11.9;64.0
79187;SHT31;68762;51.980;5.646;2024-02-28T16:07:40;11.9;63.6
79187;SHT31;68762;51.980;5.646;2024-02-28T16:10:09;11.9;63.6
79187;SHT31;68762;51.980;5.646;2024-02-28T16:12:37;11.9;63.7
79187;SHT31;68762;51.980;5.646;2024-02-28T16:15:09;11.9;63.7
79187;SHT31;68762;51.980;5.646;2024-02-28T16:17:38;11.9;63.8
79187;SHT31;68762;51.980;5.646;2024-02-28T16:20:07;11.9;63.6
79187;SHT31;68762;51.980;5.646;2024-02-28T16:22:36;11.9;63.9
79187;SHT31;68762;51.980;5.646;2024-02-28T16:25:06;11.9;63.9